sensor_id;sensor_type;location;lat;lon;timestamp;temperature;humidity
7512;DHT22;9999;48.780;9.146;2023-03-26T00:01:08;7.30;99.90
7512;DHT22;9999;48.780;9.146;2023-03-26T00:03:40;7.20;99.90
7512;DHT22;9999;48.780;9.146;2023-03-26T00:06:09;7.20;99.90
7512;DHT22;9999;48.780;9.146;2023-03-26T00:08:38;7.30;99.90
7512;DHT22;9999;48.780;9.146;2023-03-26T00:11:06;7.20;99.90
7512;DHT22;9999;48.780;9.146;2023-03-26T00:13:33;7.20;99.90
7512;DHT22;9999;48.780;9.146;2023-03-26T00:16:01;7.20;99.90
7512;DHT22;9999;48.780;9.146;2023-03-26T00:18:28;7.30;99.90
7512;DHT22;9999;48.780;9.146;2023-03-26T00:20:58;7.20;99.90
7512;DHT22;9999;48.780;9.146;2023-03-26T00:23:26;7.00;99.90
7512;DHT22;9999;48.780;9.146;2023-03-26T00:25:54;7.10;99.90
7512;DHT22;9999;48.780;9.146;2023-03-26T00:28:22;7.10;99.90
7512;DHT22;9999;48.780;9.146;2023-03-26T00:30:49;7.20;99.90
7512;DHT22;9999;48.780;9.146;2023-03-26T00:33:16;7.20;99.90
7512;DHT22;9999;48.780;9.146;2023-03-26T00:35:43;7.20;99.90
7512;DHT22;9999;48.780;9.146;2023-03-26T00:38:13;7.20;99.90
7512;DHT22;9999;48.780;9.146;2023-03-26T00:40:40;7.20;99.90
7512;DHT22;9999;48.780;9.146;2023-03-26T00:43:09;7.20;99.90
7512;DHT22;9999;48.780;9.146;2023-03-26T00:45:44;7.20;99.90
7512;DHT22;9999;48.780;9.146;2023-03-26T00:48:11;7.30;99.90
7512;DHT22;9999;48.780;9.146;2023-03-26T00:50:38;7.20;99.90
7512;DHT22;9999;48.780;9.146;2023-03-26T00:53:06;7.10;99.90
7512;DHT22;9999;48.780;9.146;2023-03-26T00:55:38;7.20;99.90
7512;DHT22;9999;48.780;9.146;2023-03-26T00:58:05;7.10;99.90
7512;DHT22;9999;48.780;9.146;2023-03-26T01:00:36;7.10;99.90
7512;DHT22;9999;48.780;9.146;2023-03-26T01:03:05;7.10;99.90
7512;DHT22;9999;48.780;9.146;2023-03-26T01:05:45;7.10;99.90
7512;DHT22;9999;48.780;9.146;2023-03-26T01:08:21;7.10;99.90
7512;DHT22;9999;48.780;9.146;2023-03-26T01:10:52;7.10;99.90
7512;DHT22;9999;48.780;9.146;2023-03-26T01:13:28;7.10;99.90
7512;DHT22;9999;48.780;9.146;2023-03-26T01:15:56;7.10;99.90
7512;DHT22;9999;48.780;9.146;2023-03-26T01:18:28;7.20;99.90
7512;DHT22;9999;48.780;9.146;2023-03-26T01:21:00;7.10;99.90
7512;DHT22;9999;48.780;9.146;2023-03-26T01:23:39;7.00;99.90
7512;DHT22;9999;48.780;9.146;2023-03-26T01:26:15;7.10;99.90
7512;DHT22;9999;48.780;9.146;2023-03-26T01:28:44;7.20;99.90
7512;DHT22;9999;48.780;9.146;2023-03-26T01:31:16;7.20;99.90
7512;DHT22;9999;48.780;9.146;2023-03-26T01:33:55;7.20;99.90
7512;DHT22;9999;48.780;9.146;2023-03-26T01:36:28;7.20;99.90
7512;DHT22;9999;48.780;9.146;2023-03-26T01:39:02;7.20;99.90
7512;DHT22;9999;48.780;9.146;2023-03-26T01:41:37;7.10;99.90
7512;DHT22;9999;48.780;9.146;2023-03-26T01:44:13;7.10;99.90
7512;DHT22;9999;48.780;9.146;2023-03-26T01:46:42;7.10;99.90
7512;DHT22;9999;48.780;9.146;2023-03-26T01:49:10;7.10;99.90
7512;DHT22;9999;48.780;9.146;2023-03-26T01:51:40;7.20;99.90
7512;DHT22;9999;48.780;9.146;2023-03-26T01:54:10;7.20;99.90
7512;DHT22;9999;48.780;9.146;2023-03-26T01:56:46;7.20;99.90
7512;DHT22;9999;48.780;9.146;2023-03-26T01:59:40;7.20;99.90
7512;DHT22;9999;48.780;9.146;2023-03-26T02:02:12;7.20;99.90
7512;DHT22;9999;48.780;9.146;2023-03-26T02:04:43;7.20;99.90
7512;DHT22;9999;48.780;9.146;2023-03-26T02:07:17;7.20;99.90
7512;DHT22;9999;48.780;9.146;2023-03-26T02:09:49;7.20;99.90
7512;DHT22;9999;48.780;9.146;2023-03-26T02:12:18;7.20;99.90
7512;DHT22;9999;48.780;9.146;2023-03-26T02:14:46;7.20;99.90
7512;DHT22;9999;48.780;9.146;2023-03-26T02:17:13;7.10;99.90
7512;DHT22;9999;48.780;9.146;2023-03-26T02:19:41;7.10;99.90
7512;DHT22;9999;48.780;9.146;2023-03-26T02:22:08;7.20;99.90
7512;DHT22;9999;48.780;9.146;2023-03-26T02:24:41;7.10;99.90
7512;DHT22;9999;48.780;9.146;2023-03-26T02:27:08;7.20;99.90
7512;DHT22;9999;48.780;9.146;2023-03-26T02:29:40;7.20;99.90
7512;DHT22;9999;48.780;9.146;2023-03-26T02:32:10;7.10;99.90
7512;DHT22;9999;48.780;9.146;2023-03-26T02:34:38;7.10;99.90
7512;DHT22;9999;48.780;9.146;2023-03-26T02:37:05;7.00;99.90
7512;DHT22;9999;48.780;9.146;2023-03-26T02:39:34;7.00;99.90
7512;DHT22;9999;48.780;9.146;2023-03-26T02:42:09;7.00;99.90
7512;DHT22;9999;48.780;9.146;2023-03-26T02:44:44;7.00;99.90
7512;DHT22;9999;48.780;9.146;2023-03-26T02:47:31;7.10;99.90
7512;DHT22;9999;48.780;9.146;2023-03-26T02:50:30;7.00;99.90
7512;DHT22;9999;48.780;9.146;2023-03-26T02:53:20;7.10;99.90
7512;DHT22;9999;48.780;9.146;2023-03-26T02:55:55;7.00;99.90
7512;DHT22;9999;48.780;9.146;2023-03-26T02:58:23;7.00;99.90
7512;DHT22;9999;48.780;9.146;2023-03-26T03:00:52;7.00;99.90
7512;DHT22;9999;48.780;9.146;2023-03-26T03:03:26;7.00;99.90
7512;DHT22;9999;48.780;9.146;2023-03-26T03:06:17;7.00;99.90
7512;DHT22;9999;48.780;9.146;2023-03-26T03:08:49;7.00;99.90
7512;DHT22;9999;48.780;9.146;2023-03-26T03:11:40;7.00;99.90
7512;DHT22;9999;48.780;9.146;2023-03-26T03:14:07;7.00;99.90
7512;DHT22;9999;48.780;9.146;2023-03-26T03:16:35;7.10;99.90
7512;DHT22;9999;48.780;9.146;2023-03-26T03:19:05;7.10;99.90
7512;DHT22;9999;48.780;9.146;2023-03-26T03:21:35;7.10;99.90
7512;DHT22;9999;48.780;9.146;2023-03-26T03:24:02;7.10;99.90
7512;DHT22;9999;48.780;9.146;2023-03-26T03:26:34;7.10;99.90
7512;DHT22;9999;48.780;9.146;2023-03-26T03:29:13;7.10;99.90
7512;DHT22;9999;48.780;9.146;2023-03-26T03:31:42;7.10;99.90
7512;DHT22;9999;48.780;9.146;2023-03-26T03:34:20;7.10;99.90
7512;DHT22;9999;48.780;9.146;2023-03-26T03:36:49;7.10;99.90
7512;DHT22;9999;48.780;9.146;2023-03-26T03:39:34;7.20;99.90
7512;DHT22;9999;48.780;9.146;2023-03-26T03:42:01;7.20;99.90
7512;DHT22;9999;48.780;9.146;2023-03-26T03:44:28;7.20;99.90
7512;DHT22;9999;48.780;9.146;2023-03-26T03:46:57;7.20;99.90
7512;DHT22;9999;48.780;9.146;2023-03-26T03:49:24;7.10;99.90
7512;DHT22;9999;48.780;9.146;2023-03-26T03:51:50;7.10;99.90
7512;DHT22;9999;48.780;9.146;2023-03-26T03:54:27;7.10;99.90
7512;DHT22;9999;48.780;9.146;2023-03-26T03:57:08;7.20;99.90
7512;DHT22;9999;48.780;9.146;2023-03-26T03:59:55;7.20;99.90
7512;DHT22;9999;48.780;9.146;2023-03-26T04:02:25;7.10;99.90
7512;DHT22;9999;48.780;9.146;2023-03-26T04:04:58;7.20;99.90
7512;DHT22;9999;48.780;9.146;2023-03-26T04:07:27;7.20;99.90
7512;DHT22;9999;48.780;9.146;2023-03-26T04:10:05;7.20;99.90
7512;DHT22;9999;48.780;9.146;2023-03-26T04:13:08;7.20;99.90
7512;DHT22;9999;48.780;9.146;2023-03-26T04:16:07;7.20;99.90
7512;DHT22;9999;48.780;9.146;2023-03-26T04:18:36;7.20;99.90
7512;DHT22;9999;48.780;9.146;2023-03-26T04:21:12;7.30;99.90
7512;DHT22;9999;48.780;9.146;2023-03-26T04:23:41;7.30;99.90
7512;DHT22;9999;48.780;9.146;2023-03-26T04:26:19;7.30;99.90
7512;DHT22;9999;48.780;9.146;2023-03-26T04:29:06;7.40;99.90
7512;DHT22;9999;48.780;9.146;2023-03-26T04:31:36;7.30;99.90
7512;DHT22;9999;48.780;9.146;2023-03-26T04:34:07;7.30;99.90
7512;DHT22;9999;48.780;9.146;2023-03-26T04:36:48;7.30;99.90
7512;DHT22;9999;48.780;9.146;2023-03-26T04:39:17;7.30;99.90
7512;DHT22;9999;48.780;9.146;2023-03-26T04:42:13;7.30;99.90
7512;DHT22;9999;48.780;9.146;2023-03-26T04:44:52;7.30;99.90
7512;DHT22;9999;48.780;9.146;2023-03-26T04:47:19;7.30;99.90
7512;DHT22;9999;48.780;9.146;2023-03-26T04:49:47;7.30;99.90
7512;DHT22;9999;48.780;9.146;2023-03-26T04:52:16;7.30;99.90
7512;DHT22;9999;48.780;9.146;2023-03-26T04:54:52;7.30;99.90
7512;DHT22;9999;48.780;9.146;2023-03-26T04:57:24;7.40;99.90
7512;DHT22;9999;48.780;9.146;2023-03-26T05:00:13;7.30;99.90
7512;DHT22;9999;48.780;9.146;2023-03-26T05:02:49;7.40;99.90
7512;DHT22;9999;48.780;9.146;2023-03-26T05:05:19;7.50;99.90
7512;DHT22;9999;48.780;9.146;2023-03-26T05:07:48;7.50;99.90
7512;DHT22;9999;48.780;9.146;2023-03-26T05:10:17;7.50;99.90
7512;DHT22;9999;48.780;9.146;2023-03-26T05:12:51;7.50;99.90
7512;DHT22;9999;48.780;9.146;2023-03-26T05:15:25;7.50;99.90
7512;DHT22;9999;48.780;9.146;2023-03-26T05:18:17;7.50;99.90
7512;DHT22;9999;48.780;9.146;2023-03-26T05:20:49;7.50;99.90
7512;DHT22;9999;48.780;9.146;2023-03-26T05:23:16;7.50;99.90
7512;DHT22;9999;48.780;9.146;2023-03-26T05:25:49;7.40;99.90
7512;DHT22;9999;48.780;9.146;2023-03-26T05:28:22;7.40;99.90
7512;DHT22;9999;48.780;9.146;2023-03-26T05:30:55;7.40;99.90
7512;DHT22;9999;48.780;9.146;2023-03-26T05:33:24;7.40;99.90
7512;DHT22;9999;48.780;9.146;2023-03-26T05:36:01;7.40;99.90
7512;DHT22;9999;48.780;9.146;2023-03-26T05:38:30;7.40;99.90
7512;DHT22;9999;48.780;9.146;2023-03-26T05:40:58;7.40;99.90
7512;DHT22;9999;48.780;9.146;2023-03-26T05:43:25;7.50;99.90
7512;DHT22;9999;48.780;9.146;2023-03-26T05:46:07;7.50;99.90
7512;DHT22;9999;48.780;9.146;2023-03-26T05:48:34;7.50;99.90
7512;DHT22;9999;48.780;9.146;2023-03-26T05:51:04;7.50;99.90
7512;DHT22;9999;48.780;9.146;2023-03-26T05:53:33;7.50;99.90
7512;DHT22;9999;48.780;9.146;2023-03-26T05:56:18;7.50;99.90
7512;DHT22;9999;48.780;9.146;2023-03-26T05:59:04;7.50;99.90
7512;DHT22;9999;48.780;9.146;2023-03-26T06:02:00;7.50;99.90
7512;DHT22;9999;48.780;9.146;2023-03-26T06:04:33;7.50;99.90
7512;DHT22;9999;48.780;9.146;2023-03-26T06:07:19;7.50;99.90
7512;DHT22;9999;48.780;9.146;2023-03-26T06:10:07;7.50;99.90
7512;DHT22;9999;48.780;9.146;2023-03-26T06:12:35;7.40;99.90
7512;DHT22;9999;48.780;9.146;2023-03-26T06:15:03;7.40;99.90
7512;DHT22;9999;48.780;9.146;2023-03-26T06:17:56;7.40;99.90
7512;DHT22;9999;48.780;9.146;2023-03-26T06:20:44;7.50;99.90
7512;DHT22;9999;48.780;9.146;2023-03-26T06:23:27;7.50;99.90
7512;DHT22;9999;48.780;9.146;2023-03-26T06:26:11;7.50;99.90
7512;DHT22;9999;48.780;9.146;2023-03-26T06:28:55;7.50;99.90
7512;DHT22;9999;48.780;9.146;2023-03-26T06:31:37;7.60;99.90
7512;DHT22;9999;48.780;9.146;2023-03-26T06:34:24;7.60;99.90
7512;DHT22;9999;48.780;9.146;2023-03-26T06:36:50;7.60;99.90
7512;DHT22;9999;48.780;9.146;2023-03-26T06:39:20;7.60;99.90
7512;DHT22;9999;48.780;9.146;2023-03-26T06:42:02;7.60;99.90
7512;DHT22;9999;48.780;9.146;2023-03-26T06:44:39;7.70;99.90
7512;DHT22;9999;48.780;9.146;2023-03-26T06:47:25;7.60;99.90
7512;DHT22;9999;48.780;9.146;2023-03-26T06:50:05;7.70;99.90
7512;DHT22;9999;48.780;9.146;2023-03-26T06:52:52;7.70;99.90
7512;DHT22;9999;48.780;9.146;2023-03-26T06:55:34;7.70;99.90
7512;DHT22;9999;48.780;9.146;2023-03-26T06:58:20;7.60;99.90
7512;DHT22;9999;48.780;9.146;2023-03-26T07:01:06;7.70;99.90
7512;DHT22;9999;48.780;9.146;2023-03-26T07:03:51;7.60;99.90
7512;DHT22;9999;48.780;9.146;2023-03-26T07:06:37;7.60;99.90
7512;DHT22;9999;48.780;9.146;2023-03-26T07:09:22;7.70;99.90
7512;DHT22;9999;48.780;9.146;2023-03-26T07:12:15;7.70;99.90
7512;DHT22;9999;48.780;9.146;2023-03-26T07:15:17;7.70;99.90
7512;DHT22;9999;48.780;9.146;2023-03-26T07:18:03;7.70;99.90
7512;DHT22;9999;48.780;9.146;2023-03-26T07:20:33;7.70;99.90
7512;DHT22;9999;48.780;9.146;2023-03-26T07:23:01;7.80;99.90
7512;DHT22;9999;48.780;9.146;2023-03-26T07:25:46;7.80;99.90
7512;DHT22;9999;48.780;9.146;2023-03-26T07:28:37;7.80;99.90
7512;DHT22;9999;48.780;9.146;2023-03-26T07:31:28;7.70;99.90
7512;DHT22;9999;48.780;9.146;2023-03-26T07:34:30;7.70;99.90
7512;DHT22;9999;48.780;9.146;2023-03-26T07:37:35;7.70;99.90
7512;DHT22;9999;48.780;9.146;2023-03-26T07:40:35;7.60;99.90
7512;DHT22;9999;48.780;9.146;2023-03-26T07:43:29;7.60;99.90
7512;DHT22;9999;48.780;9.146;2023-03-26T07:46:27;7.60;99.90
7512;DHT22;9999;48.780;9.146;2023-03-26T07:49:14;7.60;99.90
7512;DHT22;9999;48.780;9.146;2023-03-26T07:52:03;7.60;99.90
7512;DHT22;9999;48.780;9.146;2023-03-26T07:54:56;7.70;99.90
7512;DHT22;9999;48.780;9.146;2023-03-26T07:57:49;7.70;99.90
7512;DHT22;9999;48.780;9.146;2023-03-26T08:00:47;7.50;99.90
7512;DHT22;9999;48.780;9.146;2023-03-26T08:03:24;7.40;99.90
7512;DHT22;9999;48.780;9.146;2023-03-26T08:06:29;7.50;99.90
7512;DHT22;9999;48.780;9.146;2023-03-26T08:09:10;7.30;99.90
7512;DHT22;9999;48.780;9.146;2023-03-26T08:12:02;7.40;99.90
7512;DHT22;9999;48.780;9.146;2023-03-26T08:14:43;7.40;99.90
7512;DHT22;9999;48.780;9.146;2023-03-26T08:17:16;7.40;99.90
7512;DHT22;9999;48.780;9.146;2023-03-26T08:19:53;7.40;99.90
7512;DHT22;9999;48.780;9.146;2023-03-26T08:22:26;7.40;99.90
7512;DHT22;9999;48.780;9.146;2023-03-26T08:25:16;7.30;99.90
7512;DHT22;9999;48.780;9.146;2023-03-26T08:27:52;7.30;99.90
7512;DHT22;9999;48.780;9.146;2023-03-26T08:30:22;7.30;99.90
7512;DHT22;9999;48.780;9.146;2023-03-26T08:32:54;7.40;99.90
7512;DHT22;9999;48.780;9.146;2023-03-26T08:35:23;7.30;99.90
7512;DHT22;9999;48.780;9.146;2023-03-26T08:37:50;7.30;99.90
7512;DHT22;9999;48.780;9.146;2023-03-26T08:40:42;7.40;99.90
7512;DHT22;9999;48.780;9.146;2023-03-26T08:43:34;7.50;99.90
7512;DHT22;9999;48.780;9.146;2023-03-26T08:46:26;7.60;99.90
7512;DHT22;9999;48.780;9.146;2023-03-26T08:49:26;7.60;99.90
7512;DHT22;9999;48.780;9.146;2023-03-26T08:52:20;7.50;99.90
7512;DHT22;9999;48.780;9.146;2023-03-26T08:55:20;7.50;99.90
7512;DHT22;9999;48.780;9.146;2023-03-26T09:03:54;7.80;99.90
7512;DHT22;9999;48.780;9.146;2023-03-26T09:09:56;7.90;99.90
7512;DHT22;9999;48.780;9.146;2023-03-26T09:12:50;8.00;99.90
7512;DHT22;9999;48.780;9.146;2023-03-26T09:21:46;8.30;99.90
7512;DHT22;9999;48.780;9.146;2023-03-26T09:27:34;8.50;99.90
7512;DHT22;9999;48.780;9.146;2023-03-26T09:30:34;8.70;99.90
7512;DHT22;9999;48.780;9.146;2023-03-26T09:33:35;8.70;99.90
7512;DHT22;9999;48.780;9.146;2023-03-26T09:36:33;8.80;99.90
7512;DHT22;9999;48.780;9.146;2023-03-26T09:39:14;9.10;99.90
7512;DHT22;9999;48.780;9.146;2023-03-26T09:41:54;9.40;99.90
7512;DHT22;9999;48.780;9.146;2023-03-26T09:44:59;9.60;99.90
7512;DHT22;9999;48.780;9.146;2023-03-26T09:50:51;10.10;99.90
7512;DHT22;9999;48.780;9.146;2023-03-26T09:53:39;10.40;99.90
7512;DHT22;9999;48.780;9.146;2023-03-26T09:56:17;10.60;99.90
7512;DHT22;9999;48.780;9.146;2023-03-26T09:59:10;11.00;99.90
7512;DHT22;9999;48.780;9.146;2023-03-26T10:01:43;11.00;99.90
7512;DHT22;9999;48.780;9.146;2023-03-26T10:04:40;10.80;99.90
7512;DHT22;9999;48.780;9.146;2023-03-26T10:07:20;10.90;99.90
7512;DHT22;9999;48.780;9.146;2023-03-26T10:10:00;10.90;99.90
7512;DHT22;9999;48.780;9.146;2023-03-26T10:12:33;10.90;99.90
7512;DHT22;9999;48.780;9.146;2023-03-26T10:15:13;11.00;99.90
7512;DHT22;9999;48.780;9.146;2023-03-26T10:17:55;11.10;99.90
7512;DHT22;9999;48.780;9.146;2023-03-26T10:20:42;11.10;99.90
7512;DHT22;9999;48.780;9.146;2023-03-26T10:23:31;11.10;99.90
7512;DHT22;9999;48.780;9.146;2023-03-26T10:26:16;11.20;99.90
7512;DHT22;9999;48.780;9.146;2023-03-26T10:31:45;11.70;99.90
7512;DHT22;9999;48.780;9.146;2023-03-26T10:34:39;11.80;99.90
7512;DHT22;9999;48.780;9.146;2023-03-26T10:37:16;12.00;99.90
7512;DHT22;9999;48.780;9.146;2023-03-26T10:40:10;12.10;99.90
7512;DHT22;9999;48.780;9.146;2023-03-26T10:42:58;12.40;99.90
7512;DHT22;9999;48.780;9.146;2023-03-26T10:45:38;12.50;99.90
7512;DHT22;9999;48.780;9.146;2023-03-26T10:51:18;12.70;99.90
7512;DHT22;9999;48.780;9.146;2023-03-26T10:53:50;12.80;99.90
7512;DHT22;9999;48.780;9.146;2023-03-26T10:56:24;12.50;99.90
7512;DHT22;9999;48.780;9.146;2023-03-26T10:58:53;12.50;99.90
7512;DHT22;9999;48.780;9.146;2023-03-26T11:01:29;12.80;99.90
7512;DHT22;9999;48.780;9.146;2023-03-26T11:04:06;13.40;99.90
7512;DHT22;9999;48.780;9.146;2023-03-26T11:06:40;13.20;99.90
7512;DHT22;9999;48.780;9.146;2023-03-26T11:09:21;13.30;99.90
7512;DHT22;9999;48.780;9.146;2023-03-26T11:11:55;13.00;99.90
7512;DHT22;9999;48.780;9.146;2023-03-26T11:14:28;13.10;99.90
7512;DHT22;9999;48.780;9.146;2023-03-26T11:17:01;13.50;99.90
7512;DHT22;9999;48.780;9.146;2023-03-26T11:19:35;13.80;99.90
7512;DHT22;9999;48.780;9.146;2023-03-26T11:22:11;14.10;99.90
7512;DHT22;9999;48.780;9.146;2023-03-26T11:24:59;14.20;99.90
7512;DHT22;9999;48.780;9.146;2023-03-26T11:27:39;14.10;99.90
7512;DHT22;9999;48.780;9.146;2023-03-26T11:30:15;14.20;99.90
7512;DHT22;9999;48.780;9.146;2023-03-26T11:32:47;14.10;99.90
7512;DHT22;9999;48.780;9.146;2023-03-26T11:35:20;14.20;99.90
7512;DHT22;9999;48.780;9.146;2023-03-26T11:37:52;14.30;99.90
7512;DHT22;9999;48.780;9.146;2023-03-26T11:40:23;14.40;99.90
7512;DHT22;9999;48.780;9.146;2023-03-26T11:42:57;14.50;99.90
7512;DHT22;9999;48.780;9.146;2023-03-26T11:45:26;14.30;99.90
7512;DHT22;9999;48.780;9.146;2023-03-26T11:47:56;14.20;99.90
7512;DHT22;9999;48.780;9.146;2023-03-26T11:50:29;14.20;99.90
7512;DHT22;9999;48.780;9.146;2023-03-26T11:52:58;14.10;99.90
7512;DHT22;9999;48.780;9.146;2023-03-26T11:55:28;14.00;99.90
7512;DHT22;9999;48.780;9.146;2023-03-26T11:57:57;14.10;99.90
7512;DHT22;9999;48.780;9.146;2023-03-26T12:00:25;14.30;99.90
7512;DHT22;9999;48.780;9.146;2023-03-26T12:02:56;14.30;99.90
7512;DHT22;9999;48.780;9.146;2023-03-26T12:05:28;14.50;99.90
7512;DHT22;9999;48.780;9.146;2023-03-26T12:07:59;14.90;99.90
7512;DHT22;9999;48.780;9.146;2023-03-26T12:10:29;15.00;99.90
7512;DHT22;9999;48.780;9.146;2023-03-26T12:13:01;15.20;99.90
7512;DHT22;9999;48.780;9.146;2023-03-26T12:15:29;15.20;97.80
7512;DHT22;9999;48.780;9.146;2023-03-26T12:17:58;14.90;98.70
7512;DHT22;9999;48.780;9.146;2023-03-26T12:20:36;15.10;99.40
7512;DHT22;9999;48.780;9.146;2023-03-26T12:23:04;15.00;99.90
7512;DHT22;9999;48.780;9.146;2023-03-26T12:25:34;14.90;99.90
7512;DHT22;9999;48.780;9.146;2023-03-26T12:28:03;14.70;99.90
7512;DHT22;9999;48.780;9.146;2023-03-26T12:30:31;14.90;99.90
7512;DHT22;9999;48.780;9.146;2023-03-26T12:33:01;15.10;99.90
7512;DHT22;9999;48.780;9.146;2023-03-26T12:35:30;15.30;99.90
7512;DHT22;9999;48.780;9.146;2023-03-26T12:38:18;15.10;99.90
7512;DHT22;9999;48.780;9.146;2023-03-26T12:40:46;14.60;99.90
7512;DHT22;9999;48.780;9.146;2023-03-26T12:43:21;14.20;99.90
7512;DHT22;9999;48.780;9.146;2023-03-26T12:45:53;13.90;99.90
7512;DHT22;9999;48.780;9.146;2023-03-26T12:48:20;13.60;99.90
7512;DHT22;9999;48.780;9.146;2023-03-26T12:51:00;13.70;99.90
7512;DHT22;9999;48.780;9.146;2023-03-26T12:53:45;13.80;99.90
7512;DHT22;9999;48.780;9.146;2023-03-26T12:56:18;13.80;99.90
7512;DHT22;9999;48.780;9.146;2023-03-26T12:59:08;13.90;99.90
7512;DHT22;9999;48.780;9.146;2023-03-26T13:01:46;14.00;99.90
7512;DHT22;9999;48.780;9.146;2023-03-26T13:04:34;14.20;99.90
7512;DHT22;9999;48.780;9.146;2023-03-26T13:07:09;14.10;99.90
7512;DHT22;9999;48.780;9.146;2023-03-26T13:09:49;14.40;99.90
7512;DHT22;9999;48.780;9.146;2023-03-26T13:12:28;14.80;99.90
7512;DHT22;9999;48.780;9.146;2023-03-26T13:15:15;15.00;99.90
7512;DHT22;9999;48.780;9.146;2023-03-26T13:17:49;15.20;99.90
7512;DHT22;9999;48.780;9.146;2023-03-26T13:20:21;14.90;97.70
7512;DHT22;9999;48.780;9.146;2023-03-26T13:22:54;14.60;99.90
7512;DHT22;9999;48.780;9.146;2023-03-26T13:25:32;14.30;99.90
7512;DHT22;9999;48.780;9.146;2023-03-26T13:28:22;14.20;99.90
7512;DHT22;9999;48.780;9.146;2023-03-26T13:30:59;14.20;99.90
7512;DHT22;9999;48.780;9.146;2023-03-26T13:33:37;14.30;99.90
7512;DHT22;9999;48.780;9.146;2023-03-26T13:36:09;14.20;99.30
7512;DHT22;9999;48.780;9.146;2023-03-26T13:38:47;14.20;99.90
7512;DHT22;9999;48.780;9.146;2023-03-26T13:41:27;14.00;99.90
7512;DHT22;9999;48.780;9.146;2023-03-26T13:44:02;13.80;99.90
7512;DHT22;9999;48.780;9.146;2023-03-26T13:46:34;13.80;99.00
7512;DHT22;9999;48.780;9.146;2023-03-26T13:49:04;13.60;97.40
7512;DHT22;9999;48.780;9.146;2023-03-26T13:51:38;13.50;99.90
7512;DHT22;9999;48.780;9.146;2023-03-26T13:54:13;13.60;99.90
7512;DHT22;9999;48.780;9.146;2023-03-26T13:56:46;13.70;99.90
7512;DHT22;9999;48.780;9.146;2023-03-26T13:59:17;13.50;99.90
7512;DHT22;9999;48.780;9.146;2023-03-26T14:01:47;13.60;99.90
7512;DHT22;9999;48.780;9.146;2023-03-26T14:04:21;13.40;99.90
7512;DHT22;9999;48.780;9.146;2023-03-26T14:06:53;13.40;99.90
7512;DHT22;9999;48.780;9.146;2023-03-26T14:09:26;13.50;99.90
7512;DHT22;9999;48.780;9.146;2023-03-26T14:12:32;13.40;99.90
7512;DHT22;9999;48.780;9.146;2023-03-26T14:15:04;13.40;99.90
7512;DHT22;9999;48.780;9.146;2023-03-26T14:17:36;13.40;99.90
7512;DHT22;9999;48.780;9.146;2023-03-26T14:20:25;13.40;99.90
7512;DHT22;9999;48.780;9.146;2023-03-26T14:23:24;13.20;99.90
7512;DHT22;9999;48.780;9.146;2023-03-26T14:26:02;12.80;99.90
7512;DHT22;9999;48.780;9.146;2023-03-26T14:28:56;12.60;99.90
7512;DHT22;9999;48.780;9.146;2023-03-26T14:31:32;12.00;99.90
7512;DHT22;9999;48.780;9.146;2023-03-26T14:34:20;11.70;99.90
7512;DHT22;9999;48.780;9.146;2023-03-26T14:37:14;11.10;99.90
7512;DHT22;9999;48.780;9.146;2023-03-26T14:40:00;10.80;99.90
7512;DHT22;9999;48.780;9.146;2023-03-26T14:42:41;10.30;99.90
7512;DHT22;9999;48.780;9.146;2023-03-26T14:45:32;10.00;99.90
7512;DHT22;9999;48.780;9.146;2023-03-26T14:48:31;9.80;99.90
7512;DHT22;9999;48.780;9.146;2023-03-26T14:51:14;9.70;99.90
7512;DHT22;9999;48.780;9.146;2023-03-26T14:53:47;9.80;99.90
7512;DHT22;9999;48.780;9.146;2023-03-26T14:56:44;9.80;99.90
7512;DHT22;9999;48.780;9.146;2023-03-26T15:02:53;9.80;99.90
7512;DHT22;9999;48.780;9.146;2023-03-26T15:05:58;9.80;99.90
7512;DHT22;9999;48.780;9.146;2023-03-26T15:11:33;9.70;99.90
7512;DHT22;9999;48.780;9.146;2023-03-26T15:14:26;9.70;99.90
7512;DHT22;9999;48.780;9.146;2023-03-26T15:17:26;9.50;99.90
7512;DHT22;9999;48.780;9.146;2023-03-26T15:23:24;9.50;99.90
7512;DHT22;9999;48.780;9.146;2023-03-26T15:29:01;9.30;99.90
7512;DHT22;9999;48.780;9.146;2023-03-26T15:32:05;9.10;99.90
7512;DHT22;9999;48.780;9.146;2023-03-26T15:37:58;9.00;99.90
7512;DHT22;9999;48.780;9.146;2023-03-26T15:40:45;8.90;99.90
7512;DHT22;9999;48.780;9.146;2023-03-26T15:43:18;8.70;99.90
7512;DHT22;9999;48.780;9.146;2023-03-26T15:45:49;8.60;99.90
7512;DHT22;9999;48.780;9.146;2023-03-26T15:48:36;8.40;99.90
7512;DHT22;9999;48.780;9.146;2023-03-26T15:51:32;8.40;99.90
7512;DHT22;9999;48.780;9.146;2023-03-26T15:54:07;8.30;99.90
7512;DHT22;9999;48.780;9.146;2023-03-26T15:57:06;8.10;99.90
7512;DHT22;9999;48.780;9.146;2023-03-26T15:59:53;8.00;99.90
7512;DHT22;9999;48.780;9.146;2023-03-26T16:02:28;8.10;99.90
7512;DHT22;9999;48.780;9.146;2023-03-26T16:05:18;8.20;99.90
7512;DHT22;9999;48.780;9.146;2023-03-26T16:07:52;8.00;99.90
7512;DHT22;9999;48.780;9.146;2023-03-26T16:10:32;8.10;99.90
7512;DHT22;9999;48.780;9.146;2023-03-26T16:13:28;8.00;99.90
7512;DHT22;9999;48.780;9.146;2023-03-26T16:16:21;8.00;99.90
7512;DHT22;9999;48.780;9.146;2023-03-26T16:18:56;8.20;99.90
7512;DHT22;9999;48.780;9.146;2023-03-26T16:21:42;8.10;99.90
7512;DHT22;9999;48.780;9.146;2023-03-26T16:24:29;8.10;99.90
7512;DHT22;9999;48.780;9.146;2023-03-26T16:27:25;8.10;99.90
7512;DHT22;9999;48.780;9.146;2023-03-26T16:32:52;8.00;99.90
7512;DHT22;9999;48.780;9.146;2023-03-26T16:35:39;8.00;99.90
7512;DHT22;9999;48.780;9.146;2023-03-26T16:38:11;8.00;99.90
7512;DHT22;9999;48.780;9.146;2023-03-26T16:40:59;7.90;99.90
7512;DHT22;9999;48.780;9.146;2023-03-26T16:43:47;7.80;99.90
7512;DHT22;9999;48.780;9.146;2023-03-26T16:46:30;7.80;99.90
7512;DHT22;9999;48.780;9.146;2023-03-26T16:49:04;7.70;99.90
7512;DHT22;9999;48.780;9.146;2023-03-26T16:51:53;7.70;99.90
7512;DHT22;9999;48.780;9.146;2023-03-26T16:54:26;7.80;99.90
7512;DHT22;9999;48.780;9.146;2023-03-26T16:57:00;7.80;99.90
7512;DHT22;9999;48.780;9.146;2023-03-26T17:00:02;7.60;99.90
7512;DHT22;9999;48.780;9.146;2023-03-26T17:02:33;7.60;99.90
7512;DHT22;9999;48.780;9.146;2023-03-26T17:05:16;7.60;99.90
7512;DHT22;9999;48.780;9.146;2023-03-26T17:07:47;7.60;99.90
7512;DHT22;9999;48.780;9.146;2023-03-26T17:10:23;7.60;99.90
7512;DHT22;9999;48.780;9.146;2023-03-26T17:13:01;7.60;99.90
7512;DHT22;9999;48.780;9.146;2023-03-26T17:15:37;7.50;99.90
7512;DHT22;9999;48.780;9.146;2023-03-26T17:18:21;7.50;99.90
7512;DHT22;9999;48.780;9.146;2023-03-26T17:20:56;7.50;99.90
7512;DHT22;9999;48.780;9.146;2023-03-26T17:23:33;7.50;99.90
7512;DHT22;9999;48.780;9.146;2023-03-26T17:26:18;7.60;99.90
7512;DHT22;9999;48.780;9.146;2023-03-26T17:29:04;7.40;99.90
7512;DHT22;9999;48.780;9.146;2023-03-26T17:31:41;7.40;99.90
7512;DHT22;9999;48.780;9.146;2023-03-26T17:34:31;7.50;99.90
7512;DHT22;9999;48.780;9.146;2023-03-26T17:37:00;7.50;99.90
7512;DHT22;9999;48.780;9.146;2023-03-26T17:43:07;7.40;99.90
7512;DHT22;9999;48.780;9.146;2023-03-26T17:45:37;7.40;99.90
7512;DHT22;9999;48.780;9.146;2023-03-26T17:48:09;7.40;99.90
7512;DHT22;9999;48.780;9.146;2023-03-26T17:50:46;7.40;99.90
7512;DHT22;9999;48.780;9.146;2023-03-26T17:53:18;7.30;99.90
7512;DHT22;9999;48.780;9.146;2023-03-26T17:55:47;7.30;99.90
7512;DHT22;9999;48.780;9.146;2023-03-26T17:58:25;7.30;99.90
7512;DHT22;9999;48.780;9.146;2023-03-26T18:01:01;7.20;99.90
7512;DHT22;9999;48.780;9.146;2023-03-26T18:03:32;7.20;99.90
7512;DHT22;9999;48.780;9.146;2023-03-26T18:06:05;7.30;99.90
7512;DHT22;9999;48.780;9.146;2023-03-26T18:08:53;7.30;99.90
7512;DHT22;9999;48.780;9.146;2023-03-26T18:11:57;7.20;99.90
7512;DHT22;9999;48.780;9.146;2023-03-26T18:14:43;7.20;99.90